createdAt,value
2019-01-13T00:00:40.687Z,7.33
2019-01-13T00:05:36.575Z,7.15
2019-01-13T00:10:32.491Z,7.20
2019-01-13T00:15:28.398Z,7.10
2019-01-13T00:20:24.395Z,6.83
2019-01-13T00:25:20.457Z,7.16
2019-01-13T00:30:19.379Z,7.04
2019-01-13T00:35:16.548Z,7.10
2019-01-13T00:40:17.026Z,7.18
2019-01-13T00:45:13.805Z,7.11
2019-01-13T00:50:14.033Z,7.23
2019-01-13T00:55:11.636Z,7.15
2019-01-13T01:00:14.499Z,7.03
2019-01-13T01:05:10.516Z,7.04
2019-01-13T01:10:09.625Z,6.99
2019-01-13T01:15:08.637Z,7.00
2019-01-13T01:20:08.054Z,6.95
2019-01-13T01:25:05.960Z,6.97
2019-01-13T01:30:05.690Z,6.96
2019-01-13T01:35:01.966Z,6.91
2019-01-13T01:39:57.936Z,6.89
2019-01-13T01:44:53.855Z,6.90
2019-01-13T01:49:50.472Z,6.93
2019-01-13T01:54:46.457Z,6.97
2019-01-13T01:59:42.579Z,6.91
2019-01-13T02:04:38.513Z,6.92
2019-01-13T02:09:34.616Z,6.87
2019-01-13T02:14:31.141Z,6.84
2019-01-13T02:19:33.322Z,6.89
2019-01-13T02:24:29.199Z,6.87
2019-01-13T02:29:25.151Z,6.86
2019-01-13T02:34:21.687Z,6.83
2019-01-13T02:39:17.577Z,6.77
2019-01-13T02:44:13.485Z,6.72
2019-01-13T02:49:10.190Z,6.70
2019-01-13T02:54:06.204Z,6.75
2019-01-13T02:59:02.146Z,6.73
2019-01-13T03:03:58.057Z,6.74
2019-01-13T03:08:53.979Z,6.73
2019-01-13T03:13:49.905Z,6.85
2019-01-13T03:18:47.478Z,6.97
2019-01-13T03:23:43.582Z,6.84
2019-01-13T03:28:39.504Z,6.85
2019-01-13T03:33:35.411Z,6.84
2019-01-13T03:38:31.327Z,6.87
2019-01-13T03:43:27.529Z,6.86
2019-01-13T03:48:23.432Z,6.89
2019-01-13T03:53:19.338Z,6.87
2019-01-13T03:58:15.244Z,6.90
2019-01-13T04:03:11.145Z,6.97
2019-01-13T04:08:07.048Z,6.99
2019-01-13T04:13:03.621Z,7.00
2019-01-13T04:17:59.592Z,7.03
2019-01-13T04:22:55.537Z,7.04
2019-01-13T04:27:51.441Z,7.07
2019-01-13T04:32:47.340Z,7.06
2019-01-13T04:37:43.243Z,7.05
2019-01-13T04:42:39.144Z,7.14
2019-01-13T04:47:35.118Z,7.11
2019-01-13T04:52:31.025Z,7.16
2019-01-13T04:57:26.930Z,7.15
2019-01-13T05:02:22.863Z,7.16
2019-01-13T05:07:18.879Z,7.25
2019-01-13T05:12:14.778Z,7.22
2019-01-13T05:17:10.684Z,7.28
2019-01-13T05:22:06.687Z,7.25
2019-01-13T05:27:02.724Z,7.29
2019-01-13T05:31:58.632Z,7.32
2019-01-13T05:36:54.743Z,7.29
2019-01-13T05:41:50.625Z,7.35
2019-01-13T05:46:46.529Z,7.25
2019-01-13T05:51:42.619Z,7.28
2019-01-13T05:56:38.520Z,7.32
2019-01-13T06:01:35.038Z,7.29
2019-01-13T06:06:30.909Z,7.30
2019-01-13T06:11:27.032Z,7.33
2019-01-13T06:16:22.895Z,7.26
2019-01-13T06:21:18.799Z,7.26
2019-01-13T06:26:14.698Z,7.26
2019-01-13T06:31:10.601Z,7.29
2019-01-13T06:36:06.587Z,7.30
2019-01-13T06:41:02.940Z,7.33
2019-01-13T06:45:58.844Z,7.35
2019-01-13T06:50:54.816Z,7.33
2019-01-13T06:55:50.715Z,7.37
2019-01-13T07:00:46.701Z,7.40
2019-01-13T07:05:42.631Z,7.42
2019-01-13T07:10:38.630Z,7.44
2019-01-13T07:15:34.531Z,7.45
2019-01-13T07:20:30.465Z,7.49
2019-01-13T07:25:26.369Z,7.46
2019-01-13T07:30:22.436Z,7.53
2019-01-13T07:35:18.480Z,7.51
2019-01-13T07:40:16.999Z,7.57
2019-01-13T07:45:15.408Z,7.57
2019-01-13T07:50:13.610Z,7.63
2019-01-13T07:55:15.989Z,7.64
2019-01-13T08:00:20.899Z,7.67
2019-01-13T08:05:16.932Z,7.69
2019-01-13T08:10:14.043Z,7.71
2019-01-13T08:15:18.679Z,7.79
2019-01-13T08:20:23.386Z,7.78
2019-01-13T08:25:19.991Z,7.80
2019-01-13T08:30:18.177Z,7.84
2019-01-13T08:35:14.589Z,7.86
2019-01-13T08:40:13.997Z,7.87
2019-01-13T08:45:10.515Z,7.90
2019-01-13T08:50:14.908Z,7.94
2019-01-13T08:55:12.200Z,7.96
2019-01-13T09:00:15.260Z,7.96
2019-01-13T09:05:11.381Z,8.01
2019-01-13T09:10:11.238Z,8.05
2019-01-13T09:15:11.602Z,8.06
2019-01-13T09:20:13.863Z,8.20
2019-01-13T09:25:10.455Z,8.28
2019-01-13T09:30:13.819Z,8.39
2019-01-13T09:35:10.324Z,8.39
2019-01-13T09:40:10.131Z,8.45
2019-01-13T09:45:10.614Z,8.51
2019-01-13T09:50:10.749Z,8.54
2019-01-13T09:55:12.570Z,8.68
2019-01-13T10:00:15.095Z,8.54
2019-01-13T10:05:11.565Z,8.53
2019-01-13T10:10:10.262Z,8.57
2019-01-13T10:15:09.774Z,8.62
2019-01-13T10:20:14.352Z,8.67
2019-01-13T10:25:10.715Z,8.70
2019-01-13T10:30:10.375Z,8.77
2019-01-13T10:35:10.939Z,8.75
2019-01-13T10:40:10.862Z,8.81
2019-01-13T10:45:10.080Z,8.84
2019-01-13T10:50:18.700Z,8.90
2019-01-13T10:55:15.562Z,8.93
2019-01-13T11:00:17.915Z,8.95
2019-01-13T11:05:13.974Z,8.96
2019-01-13T11:10:12.886Z,8.94
2019-01-13T11:15:11.818Z,8.96
2019-01-13T11:20:19.835Z,8.98
2019-01-13T11:25:16.056Z,8.96
2019-01-13T11:30:22.643Z,8.94
2019-01-13T11:35:20.194Z,8.95
2019-01-13T11:40:18.867Z,8.95
2019-01-13T11:45:14.971Z,8.95
2019-01-13T11:50:17.234Z,8.99
2019-01-13T11:55:15.008Z,8.95
2019-01-13T12:00:23.803Z,9.24
2019-01-13T12:05:19.815Z,9.16
2019-01-13T12:10:19.873Z,9.12
2019-01-13T12:15:17.895Z,9.09
2019-01-13T12:20:23.781Z,8.95
2019-01-13T12:25:21.998Z,8.95
2019-01-13T12:30:29.360Z,8.90
2019-01-13T12:35:26.048Z,8.94
2019-01-13T12:40:24.357Z,8.91
2019-01-13T12:45:21.843Z,8.90
2019-01-13T12:50:28.676Z,8.94
2019-01-13T12:55:24.987Z,8.90
2019-01-13T13:00:21.346Z,8.87
2019-01-13T13:05:18.183Z,8.88
2019-01-13T13:10:25.209Z,8.87
2019-01-13T13:15:21.532Z,8.85
2019-01-13T13:20:18.784Z,8.89
2019-01-13T13:25:14.944Z,8.87
2019-01-13T13:30:17.177Z,8.85
2019-01-13T13:35:13.369Z,8.90
2019-01-13T13:40:13.203Z,8.87
2019-01-13T13:45:09.949Z,8.86
2019-01-13T13:50:18.545Z,8.87
2019-01-13T13:55:15.333Z,8.85
2019-01-13T14:00:21.440Z,8.81
2019-01-13T14:05:17.437Z,8.83
2019-01-13T14:10:43.187Z,8.83
2019-01-13T14:15:39.184Z,8.83
2019-01-13T14:20:35.189Z,8.83
2019-01-13T14:25:31.181Z,8.79
2019-01-13T14:30:27.292Z,8.79
2019-01-13T14:35:23.590Z,8.80
2019-01-13T14:40:22.056Z,8.79
2019-01-13T14:45:20.166Z,8.80
2019-01-13T14:50:20.159Z,8.80
2019-01-13T14:55:16.337Z,8.84
2019-01-13T15:00:15.648Z,8.84
2019-01-13T15:05:12.644Z,8.86
2019-01-13T15:10:11.977Z,8.82
2019-01-13T15:15:10.362Z,8.82
2019-01-13T15:20:09.807Z,8.82
2019-01-13T15:25:08.726Z,8.83
2019-01-13T15:30:11.217Z,8.78
2019-01-13T15:35:07.326Z,8.81
2019-01-13T15:40:07.027Z,8.77
2019-01-13T15:45:07.203Z,8.81
2019-01-13T15:50:10.163Z,8.78
2019-01-13T15:55:06.565Z,8.81
2019-01-13T16:00:10.571Z,8.86
2019-01-13T16:05:06.905Z,8.85
2019-01-13T16:10:07.372Z,8.86
2019-01-13T16:15:07.593Z,8.88
2019-01-13T16:20:18.727Z,8.80
2019-01-13T16:25:15.101Z,8.85
2019-01-13T16:30:18.966Z,8.88
2019-01-13T16:35:15.652Z,8.90
2019-01-13T16:40:14.441Z,8.87
2019-01-13T16:45:13.024Z,8.79
2019-01-13T16:50:17.165Z,8.75
2019-01-13T16:55:13.547Z,8.76
2019-01-13T17:00:13.338Z,8.73
2019-01-13T17:05:11.699Z,8.75
2019-01-13T17:10:10.899Z,8.77
2019-01-13T17:15:12.167Z,8.82
2019-01-13T17:20:17.454Z,8.76
2019-01-13T17:25:22.656Z,8.77
2019-01-13T17:30:24.416Z,8.93
2019-01-13T17:35:21.281Z,8.77
2019-01-13T17:40:23.549Z,8.54
2019-01-13T17:45:26.938Z,7.04
2019-01-13T17:50:28.440Z,6.64
2019-01-13T17:55:27.278Z,6.56
2019-01-13T18:00:33.168Z,6.66
2019-01-13T18:05:31.617Z,6.83
2019-01-13T18:10:28.277Z,7.00
2019-01-13T18:15:25.465Z,7.00
2019-01-13T18:20:24.277Z,7.02
2019-01-13T18:25:22.385Z,7.07
2019-01-13T18:30:23.293Z,6.69
2019-01-13T18:35:22.536Z,6.25
2019-01-13T18:40:20.791Z,6.25
2019-01-13T18:45:17.765Z,6.08
2019-01-13T18:50:21.588Z,6.11
2019-01-13T18:55:18.250Z,6.17
2019-01-13T19:00:21.652Z,6.45
2019-01-13T19:05:21.687Z,6.46
2019-01-13T19:10:25.976Z,6.64
2019-01-13T19:15:23.204Z,6.54
2019-01-13T19:20:19.925Z,6.46
2019-01-13T19:25:17.333Z,6.56
2019-01-13T19:30:16.157Z,6.61
2019-01-13T19:35:15.364Z,6.74
2019-01-13T19:40:17.889Z,6.81
2019-01-13T19:45:16.731Z,6.27
2019-01-13T19:50:16.549Z,5.65
2019-01-13T19:55:17.219Z,5.61
2019-01-13T20:00:16.932Z,5.87
2019-01-13T20:05:12.893Z,6.20
2019-01-13T20:10:10.995Z,6.27
2019-01-13T20:15:12.924Z,6.23
2019-01-13T20:20:12.023Z,6.30
2019-01-13T20:25:10.624Z,6.34
2019-01-13T20:30:13.533Z,6.29
2019-01-13T20:35:09.424Z,6.38
2019-01-13T20:40:08.526Z,6.45
2019-01-13T20:45:08.224Z,6.44
2019-01-13T20:50:15.233Z,6.39
2019-01-13T20:55:13.293Z,6.40
2019-01-13T21:00:15.584Z,6.34
2019-01-13T21:05:13.133Z,6.37
2019-01-13T21:10:12.199Z,6.41
2019-01-13T21:15:11.494Z,6.47
2019-01-13T21:20:08.987Z,6.61
2019-01-13T21:25:10.894Z,6.65
2019-01-13T21:30:16.603Z,6.65
2019-01-13T21:35:12.700Z,6.81
2019-01-13T21:40:11.289Z,6.89
2019-01-13T21:45:13.110Z,6.91
2019-01-13T21:50:12.010Z,6.98
2019-01-13T21:55:10.601Z,7.00
2019-01-13T22:00:10.125Z,7.26
2019-01-13T22:05:07.921Z,6.99
2019-01-13T22:10:07.619Z,7.00
2019-01-13T22:15:05.916Z,6.95
2019-01-13T22:20:04.820Z,6.99
2019-01-13T22:25:00.768Z,7.02
2019-01-13T22:29:56.659Z,6.91
2019-01-13T22:34:52.558Z,6.86
2019-01-13T22:39:48.456Z,6.85
2019-01-13T22:44:44.346Z,7.00
2019-01-13T22:49:41.120Z,7.03
2019-01-13T22:54:36.971Z,7.01
2019-01-13T22:59:32.901Z,6.90
2019-01-13T23:04:28.790Z,6.93
2019-01-13T23:09:24.694Z,6.95
2019-01-13T23:14:20.582Z,6.89
2019-01-13T23:19:19.504Z,6.74
2019-01-13T23:24:15.402Z,6.65
2019-01-13T23:29:11.300Z,6.59
2019-01-13T23:34:07.199Z,6.63
2019-01-13T23:39:06.414Z,6.65
2019-01-13T23:44:02.982Z,6.68
2019-01-13T23:49:04.299Z,6.78
2019-01-13T23:54:00.194Z,6.83
2019-01-13T23:58:56.222Z,6.97
